Time;durP1;ratioP1;P1;durP2;ratioP2;P2;SDS_P1;SDS_P2;PMS_P1;PMS_P2;Temp;Humidity;BMP_temperature;BMP_pressure;BME280_temperature;BME280_humidity;BME280_pressure;Samples;Min_cycle;Max_cycle;Signal;HPM_P1;HPM_P2
2022/03/09 00:01:29;;;;;;;22.98;13.43;;;2.20;91.80;;;;;;5007574;28;20531;-67
2022/03/09 00:03:55;;;;;;;22.20;13.07;;;2.20;91.70;;;;;;5009287;28;20096;-67
2022/03/09 00:06:21;;;;;;;14.65;12.43;;;2.20;91.60;;;;;;5006417;28;20541;-68
2022/03/09 00:08:46;;;;;;;14.77;11.02;;;2.20;91.70;;;;;;5011949;28;20053;-68
2022/03/09 00:11:14;;;;;;;15.60;10.75;;;2.20;91.80;;;;;;5008632;28;20049;-67
2022/03/09 00:13:40;;;;;;;12.70;10.60;;;2.10;92.00;;;;;;5007763;28;20069;-68
2022/03/09 00:16:05;;;;;;;12.13;10.52;;;2.20;92.00;;;;;;5001744;28;20042;-68
2022/03/09 00:18:31;;;;;;;13.90;10.15;;;2.10;92.00;;;;;;5003669;28;20051;-67
2022/03/09 00:20:57;;;;;;;11.90;9.80;;;2.10;92.10;;;;;;5007237;28;20037;-66
2022/03/09 00:23:22;;;;;;;15.45;9.93;;;2.10;92.40;;;;;;5009339;28;20065;-67
2022/03/09 00:25:48;;;;;;;23.67;10.15;;;2.10;92.50;;;;;;5005640;28;20049;-68
2022/03/09 00:28:13;;;;;;;19.92;11.73;;;2.10;93.00;;;;;;5009176;28;20093;-67
2022/03/09 00:30:39;;;;;;;21.25;11.27;;;2.00;93.60;;;;;;5007426;28;20045;-67
2022/03/09 00:33:07;;;;;;;14.93;10.55;;;1.80;94.90;;;;;;5009888;28;20037;-67
2022/03/09 00:35:32;;;;;;;13.90;11.68;;;1.70;95.90;;;;;;5006388;28;20093;-67
2022/03/09 00:37:58;;;;;;;15.63;10.77;;;1.50;96.90;;;;;;5006288;28;20597;-67
2022/03/09 00:40:27;;;;;;;14.25;11.50;;;1.40;97.40;;;;;;4984229;28;20038;-67
2022/03/09 00:42:56;;;;;;;18.20;11.38;;;1.30;98.30;;;;;;5004486;28;20636;-67
2022/03/09 00:45:21;;;;;;;18.80;11.98;;;1.20;99.20;;;;;;5001731;28;20050;-67
2022/03/09 00:47:48;;;;;;;15.80;10.30;;;1.00;99.90;;;;;;4991676;28;20059;-68
2022/03/09 00:50:14;;;;;;;16.00;11.27;;;1.00;99.90;;;;;;5005109;28;20046;-67
2022/03/09 00:52:39;;;;;;;16.15;12.65;;;1.00;99.90;;;;;;5007498;28;20030;-67
2022/03/09 00:55:07;;;;;;;19.85;13.85;;;1.00;99.90;;;;;;5007922;28;20045;-67
2022/03/09 00:57:32;;;;;;;19.20;12.80;;;1.00;99.90;;;;;;5008490;28;20072;-67
2022/03/09 00:59:58;;;;;;;19.88;12.05;;;1.10;99.90;;;;;;5005034;28;20046;-67
2022/03/09 01:02:24;;;;;;;25.63;13.30;;;1.10;99.80;;;;;;5008053;28;20041;-67
2022/03/09 01:04:50;;;;;;;16.38;10.95;;;1.10;99.50;;;;;;5000916;28;20043;-67
2022/03/09 01:07:15;;;;;;;16.38;11.98;;;1.20;99.60;;;;;;5004837;28;20045;-67
2022/03/09 01:09:41;;;;;;;15.73;12.15;;;1.20;99.30;;;;;;5007083;28;20491;-67
2022/03/09 01:12:08;;;;;;;19.88;12.52;;;1.30;99.10;;;;;;5005458;28;20138;-67
2022/03/09 01:14:34;;;;;;;18.58;11.68;;;1.30;98.70;;;;;;5005392;28;20045;-67
2022/03/09 01:16:59;;;;;;;20.05;12.40;;;1.40;98.40;;;;;;5010746;28;20056;-67
2022/03/09 01:19:25;;;;;;;17.17;12.23;;;1.50;98.50;;;;;;5005402;28;20081;-67
2022/03/09 01:21:51;;;;;;;15.82;11.02;;;1.50;98.30;;;;;;5006995;28;20128;-67
2022/03/09 01:24:17;;;;;;;17.73;12.55;;;1.50;98.10;;;;;;5005192;28;20070;-67
2022/03/09 01:26:42;;;;;;;20.00;13.20;;;1.60;97.90;;;;;;5008346;28;20108;-68
2022/03/09 01:29:09;;;;;;;19.55;12.63;;;1.60;97.80;;;;;;5007393;28;20046;-67
2022/03/09 01:31:35;;;;;;;18.38;11.38;;;1.50;98.40;;;;;;4990364;28;20046;-67
2022/03/09 01:34:02;;;;;;;18.08;11.35;;;1.50;98.80;;;;;;5007071;28;20049;-67
2022/03/09 01:36:28;;;;;;;20.98;12.93;;;1.40;99.20;;;;;;5005859;28;20590;-68
2022/03/09 01:38:54;;;;;;;19.45;12.75;;;1.40;99.90;;;;;;5006135;28;20117;-67
2022/03/09 01:41:19;;;;;;;23.25;12.43;;;1.40;99.90;;;;;;5003966;28;20060;-67
2022/03/09 01:43:45;;;;;;;25.88;12.52;;;1.30;99.90;;;;;;5006365;28;20993;-67
2022/03/09 01:46:12;;;;;;;20.33;13.43;;;1.20;99.90;;;;;;5007342;28;20050;-67
2022/03/09 01:48:37;;;;;;;20.42;13.40;;;1.20;99.90;;;;;;5006185;28;20045;-67
2022/03/09 01:51:03;;;;;;;18.67;14.07;;;1.00;99.90;;;;;;5007032;28;20050;-68
2022/03/09 01:53:29;;;;;;;17.33;12.95;;;1.00;99.90;;;;;;5005323;28;20133;-67
2022/03/09 01:55:55;;;;;;;19.77;13.63;;;0.90;99.90;;;;;;5002885;28;20026;-67
2022/03/09 01:58:20;;;;;;;26.13;14.45;;;0.90;99.90;;;;;;5006515;28;20073;-67
2022/03/09 02:00:46;;;;;;;20.38;13.20;;;0.90;99.90;;;;;;5003510;28;20038;-67
2022/03/09 02:03:12;;;;;;;23.25;13.63;;;0.90;99.90;;;;;;4996206;28;20402;-67
2022/03/09 02:05:37;;;;;;;19.33;13.57;;;1.00;99.90;;;;;;5003415;28;20870;-67
2022/03/09 02:10:49;;;;;;;20.27;13.18;;;1.10;99.90;;;;;;5007777;28;20054;-67
2022/03/09 02:13:15;;;;;;;20.20;13.82;;;1.00;99.90;;;;;;5000661;28;20100;-68
2022/03/09 02:15:44;;;;;;;20.67;13.75;;;1.00;99.90;;;;;;5007962;28;20514;-67
2022/03/09 02:18:10;;;;;;;23.73;14.70;;;0.90;99.90;;;;;;5006297;28;20488;-67
2022/03/09 02:20:42;;;;;;;15.73;13.07;;;0.80;99.90;;;;;;5011281;28;20041;-67
2022/03/09 02:23:07;;;;;;;20.40;13.35;;;0.60;99.90;;;;;;5013755;28;20529;-67
2022/03/09 02:25:33;;;;;;;23.88;14.70;;;0.40;99.90;;;;;;5012146;28;20042;-67
2022/03/09 02:28:00;;;;;;;21.83;15.75;;;0.40;99.90;;;;;;5010671;28;20042;-67
2022/03/09 02:30:26;;;;;;;24.52;14.93;;;0.30;99.90;;;;;;5012414;28;20069;-67
2022/03/09 02:32:52;;;;;;;20.98;14.38;;;0.30;99.90;;;;;;5009624;28;20081;-67
2022/03/09 02:35:19;;;;;;;28.63;15.15;;;0.30;99.90;;;;;;5012130;28;20045;-67
2022/03/09 02:37:45;;;;;;;24.50;14.98;;;0.30;99.90;;;;;;5014799;28;20042;-67
2022/03/09 02:40:13;;;;;;;21.73;15.10;;;0.30;99.90;;;;;;5011024;28;20053;-67
2022/03/09 02:42:40;;;;;;;22.48;15.63;;;0.40;99.90;;;;;;5011411;28;20689;-67
2022/03/09 02:45:06;;;;;;;21.23;15.52;;;0.40;99.90;;;;;;5008976;28;20041;-67
2022/03/09 02:47:32;;;;;;;21.90;15.55;;;0.40;99.90;;;;;;5009577;28;20038;-67
2022/03/09 02:49:58;;;;;;;23.45;15.23;;;0.30;99.90;;;;;;5011049;28;20871;-67
2022/03/09 02:52:24;;;;;;;25.63;17.08;;;0.40;99.90;;;;;;5009426;28;20042;-68
2022/03/09 02:54:51;;;;;;;23.60;15.63;;;0.40;99.90;;;;;;5016298;28;20045;-67
2022/03/09 02:57:16;;;;;;;24.10;16.75;;;0.40;99.90;;;;;;5005614;28;20042;-67
2022/03/09 02:59:42;;;;;;;27.60;16.48;;;0.40;99.90;;;;;;5004870;28;20511;-67
2022/03/09 03:02:07;;;;;;;22.73;16.15;;;0.40;99.90;;;;;;5008512;28;20045;-67
2022/03/09 03:04:33;;;;;;;22.92;15.88;;;0.40;99.90;;;;;;5007073;28;20119;-67
2022/03/09 03:06:59;;;;;;;22.20;15.13;;;0.50;99.90;;;;;;5007451;28;20046;-68
2022/03/09 03:09:24;;;;;;;21.63;15.15;;;0.50;99.90;;;;;;5007998;28;20399;-67
2022/03/09 03:11:51;;;;;;;24.00;15.23;;;0.40;99.90;;;;;;5012679;28;20450;-67
2022/03/09 03:14:17;;;;;;;21.52;16.20;;;0.40;99.90;;;;;;5006060;28;20048;-67
2022/03/09 03:16:42;;;;;;;22.38;15.82;;;0.30;99.90;;;;;;4991726;28;20050;-67
2022/03/09 03:19:08;;;;;;;24.33;15.70;;;0.30;99.90;;;;;;5010096;28;20074;-67
2022/03/09 03:21:34;;;;;;;23.13;16.95;;;0.30;99.90;;;;;;5013364;28;20038;-67
2022/03/09 03:23:59;;;;;;;29.77;16.52;;;0.30;99.90;;;;;;5016752;28;20561;-67
2022/03/09 03:26:25;;;;;;;26.02;16.30;;;0.40;99.90;;;;;;5008116;28;20038;-67
2022/03/09 03:28:52;;;;;;;25.67;16.08;;;0.40;99.90;;;;;;5009344;28;20300;-67
2022/03/09 03:31:19;;;;;;;25.80;17.00;;;0.40;99.90;;;;;;5008182;28;20038;-67
2022/03/09 03:33:45;;;;;;;27.67;16.42;;;0.50;99.90;;;;;;5010436;28;20491;-67
2022/03/09 03:36:11;;;;;;;23.30;16.77;;;0.50;99.90;;;;;;5011816;28;20505;-66
2022/03/09 03:38:36;;;;;;;24.05;16.13;;;0.60;99.90;;;;;;5008536;28;20042;-67
2022/03/09 03:41:04;;;;;;;24.70;15.75;;;0.50;99.90;;;;;;4993383;28;20072;-67
2022/03/09 03:43:30;;;;;;;31.13;16.57;;;0.60;99.90;;;;;;5013513;28;20415;-67
2022/03/09 03:45:55;;;;;;;23.60;17.15;;;0.60;99.90;;;;;;5008873;28;20041;-66
2022/03/09 03:48:22;;;;;;;25.10;17.77;;;0.60;99.90;;;;;;5005527;28;20104;-67
2022/03/09 03:50:48;;;;;;;25.00;16.45;;;0.70;99.90;;;;;;5007044;28;20088;-67
2022/03/09 03:53:14;;;;;;;26.92;17.95;;;0.70;99.90;;;;;;5003816;28;20077;-67
2022/03/09 03:55:39;;;;;;;27.02;16.48;;;0.70;99.90;;;;;;5006487;28;20084;-67
2022/03/09 03:58:05;;;;;;;29.52;17.48;;;0.70;99.90;;;;;;5015785;28;20057;-67
2022/03/09 04:00:31;;;;;;;27.77;19.27;;;0.70;99.90;;;;;;5007757;28;20049;-67
2022/03/09 04:02:56;;;;;;;25.23;18.70;;;0.50;99.90;;;;;;5003344;28;20043;-67
2022/03/09 04:05:23;;;;;;;26.95;17.65;;;0.30;99.90;;;;;;5013944;28;20164;-67
2022/03/09 04:07:49;;;;;;;25.85;17.27;;;0.20;99.90;;;;;;5008102;28;20113;-67
2022/03/09 04:10:15;;;;;;;37.50;19.23;;;0.10;99.90;;;;;;5008035;28;20077;-67
2022/03/09 04:12:40;;;;;;;25.77;18.38;;;0.00;99.90;;;;;;5005175;28;20042;-67
2022/03/09 04:15:07;;;;;;;28.67;18.55;;;-0.10;99.90;;;;;;5009276;28;20045;-67
2022/03/09 04:17:43;;;;;;;29.60;19.15;;;-0.10;99.90;;;;;;5013729;28;20476;-67
2022/03/09 04:20:10;;;;;;;25.23;16.95;;;-0.20;99.90;;;;;;5006469;28;20089;-67
2022/03/09 04:22:36;;;;;;;25.88;17.40;;;-0.10;99.90;;;;;;5014589;28;20056;-67
2022/03/09 04:25:03;;;;;;;30.15;18.98;;;-0.20;99.90;;;;;;5015607;28;20053;-66
2022/03/09 04:27:29;;;;;;;23.05;16.67;;;-0.20;99.90;;;;;;5008172;28;20057;-67
2022/03/09 04:29:54;;;;;;;29.58;18.48;;;-0.30;99.90;;;;;;5001387;28;20048;-66
2022/03/09 04:32:20;;;;;;;39.55;19.02;;;-0.40;99.90;;;;;;5002899;28;20033;-67
2022/03/09 04:34:45;;;;;;;27.05;19.25;;;-0.40;99.90;;;;;;5006107;28;20120;-67
2022/03/09 04:37:11;;;;;;;36.60;18.95;;;-0.60;99.90;;;;;;5001422;28;20539;-66
2022/03/09 04:39:37;;;;;;;26.63;18.98;;;-0.60;99.90;;;;;;5000439;28;20033;-65
2022/03/09 04:42:03;;;;;;;28.08;18.67;;;-0.70;99.90;;;;;;5008836;28;20050;-67
2022/03/09 04:44:29;;;;;;;32.78;20.27;;;-0.70;99.90;;;;;;5005472;28;20508;-67
2022/03/09 04:46:55;;;;;;;30.83;19.88;;;-0.70;99.90;;;;;;5012983;28;20034;-66
2022/03/09 04:49:20;;;;;;;30.40;19.98;;;-0.60;99.90;;;;;;5003816;28;20038;-66
2022/03/09 04:51:46;;;;;;;31.85;20.27;;;-0.60;99.90;;;;;;5005921;28;20104;-66
2022/03/09 04:54:12;;;;;;;26.83;18.98;;;-0.50;99.90;;;;;;5006343;28;20133;-66
2022/03/09 04:56:38;;;;;;;36.05;20.25;;;-0.30;99.90;;;;;;5001619;28;20034;-67
2022/03/09 04:59:03;;;;;;;26.13;18.02;;;-0.20;99.90;;;;;;5003504;28;20521;-66
2022/03/09 05:01:29;;;;;;;26.40;18.05;;;-0.20;99.90;;;;;;5002744;28;20443;-67
2022/03/09 05:03:55;;;;;;;32.83;20.95;;;-0.10;99.90;;;;;;5005195;28;20082;-67
2022/03/09 05:06:20;;;;;;;31.02;18.63;;;0.00;99.90;;;;;;5005898;28;20487;-68
2022/03/09 05:08:46;;;;;;;31.83;19.58;;;0.00;99.90;;;;;;5003803;28;20085;-69
2022/03/09 05:11:12;;;;;;;38.00;20.00;;;0.00;99.90;;;;;;5003147;28;20049;-68
2022/03/09 05:13:37;;;;;;;30.33;19.88;;;0.00;99.90;;;;;;5002349;28;20085;-67
2022/03/09 05:16:05;;;;;;;30.17;20.27;;;0.00;99.90;;;;;;5004936;28;20048;-67
2022/03/09 05:18:37;;;;;;;34.08;21.40;;;0.00;99.90;;;;;;5004892;28;20049;-67
2022/03/09 05:21:04;;;;;;;42.90;19.98;;;-0.10;99.90;;;;;;5003015;28;20057;-66
2022/03/09 05:23:30;;;;;;;33.08;20.13;;;-0.20;99.90;;;;;;5008461;28;20112;-66
2022/03/09 05:25:55;;;;;;;33.28;20.83;;;-0.20;99.90;;;;;;5004064;28;20762;-67
2022/03/09 05:28:21;;;;;;;32.47;22.10;;;-0.30;99.90;;;;;;5002474;28;20049;-66
2022/03/09 05:30:47;;;;;;;32.25;19.45;;;-0.30;99.90;;;;;;5009363;28;20030;-66
2022/03/09 05:33:13;;;;;;;30.95;21.25;;;-0.40;99.90;;;;;;5000117;28;20050;-66
2022/03/09 05:35:39;;;;;;;29.92;20.00;;;-0.50;99.90;;;;;;5004304;28;20696;-67
2022/03/09 05:38:05;;;;;;;27.98;19.02;;;-0.60;99.90;;;;;;5008925;28;20403;-66
2022/03/09 05:40:30;;;;;;;34.60;20.38;;;-0.60;99.90;;;;;;5008172;28;20561;-67
2022/03/09 05:42:56;;;;;;;34.30;22.10;;;-0.70;99.90;;;;;;5005570;28;20136;-66
2022/03/09 05:45:22;;;;;;;30.30;21.23;;;-0.70;99.90;;;;;;5006745;28;20050;-67
2022/03/09 05:47:48;;;;;;;34.47;20.00;;;-0.70;99.90;;;;;;5007211;28;20088;-66
2022/03/09 05:50:14;;;;;;;36.85;20.92;;;-0.70;99.90;;;;;;4988301;28;20589;-67
2022/03/09 05:52:39;;;;;;;33.55;21.63;;;-0.70;99.90;;;;;;5012189;28;20121;-66
2022/03/09 05:55:05;;;;;;;30.05;20.67;;;-0.80;99.90;;;;;;5010181;28;20045;-67
2022/03/09 05:57:31;;;;;;;41.97;20.20;;;-0.80;99.90;;;;;;5002536;28;20069;-67
2022/03/09 05:59:57;;;;;;;36.50;22.02;;;-0.80;99.90;;;;;;5011439;28;20046;-67
2022/03/09 06:02:23;;;;;;;34.08;22.58;;;-0.80;99.90;;;;;;5010694;28;20046;-67
2022/03/09 06:04:49;;;;;;;34.08;22.02;;;-0.80;99.90;;;;;;5007835;28;20038;-67
2022/03/09 06:07:15;;;;;;;42.00;22.90;;;-0.70;99.90;;;;;;5010900;28;20531;-66
2022/03/09 06:09:41;;;;;;;32.55;23.77;;;-0.60;99.90;;;;;;5015019;28;20037;-67
2022/03/09 06:12:08;;;;;;;41.97;28.00;;;-0.50;99.90;;;;;;5011108;28;20056;-67
2022/03/09 06:14:33;;;;;;;43.90;25.98;;;-0.40;99.90;;;;;;5012338;28;20045;-66
2022/03/09 06:16:59;;;;;;;36.88;25.77;;;-0.30;99.90;;;;;;5006828;28;20392;-66
2022/03/09 06:19:25;;;;;;;32.92;21.88;;;-0.20;99.90;;;;;;5017822;28;20041;-66
2022/03/09 06:21:50;;;;;;;34.42;22.33;;;-0.10;99.90;;;;;;5010407;28;20037;-66
2022/03/09 06:24:18;;;;;;;38.25;23.23;;;0.00;99.90;;;;;;5020315;28;20045;-66
2022/03/09 06:26:44;;;;;;;43.30;23.30;;;0.10;99.90;;;;;;5007627;28;20462;-66
2022/03/09 06:29:10;;;;;;;34.83;20.23;;;0.10;99.90;;;;;;5011026;28;20046;-66
2022/03/09 06:31:37;;;;;;;33.58;20.90;;;0.10;99.90;;;;;;5008243;28;20049;-66
2022/03/09 06:34:03;;;;;;;36.63;20.45;;;0.20;99.90;;;;;;5008897;28;20048;-66
2022/03/09 06:36:28;;;;;;;34.47;21.85;;;0.20;99.90;;;;;;4998391;28;20389;-66
2022/03/09 06:38:55;;;;;;;32.53;20.00;;;0.30;99.90;;;;;;5005597;28;20046;-66
2022/03/09 06:41:20;;;;;;;31.23;20.80;;;0.30;99.90;;;;;;5008592;28;20407;-66
2022/03/09 06:43:46;;;;;;;32.10;20.90;;;0.60;99.90;;;;;;5010451;28;20056;-66
2022/03/09 06:46:12;;;;;;;30.30;21.75;;;0.80;99.90;;;;;;5006937;28;20041;-66
2022/03/09 06:48:38;;;;;;;29.08;18.63;;;1.00;99.90;;;;;;5014701;28;20037;-67
2022/03/09 06:51:04;;;;;;;30.20;21.55;;;1.10;99.90;;;;;;5007289;28;20054;-66
2022/03/09 06:53:30;;;;;;;34.20;22.20;;;1.30;99.90;;;;;;5009628;28;20122;-65
2022/03/09 06:55:56;;;;;;;35.92;21.15;;;1.40;99.90;;;;;;5009511;28;20148;-66
2022/03/09 06:58:26;;;;;;;34.00;21.05;;;1.50;99.90;;;;;;5014318;28;20582;-67
2022/03/09 07:00:52;;;;;;;32.55;21.45;;;1.70;99.90;;;;;;4989786;28;20092;-67
2022/03/09 07:03:19;;;;;;;46.80;23.23;;;1.90;99.90;;;;;;5008207;28;20049;-67
2022/03/09 07:05:46;;;;;;;33.00;23.23;;;2.00;99.90;;;;;;5006630;28;20701;-66
2022/03/09 07:08:11;;;;;;;43.10;23.98;;;2.20;99.90;;;;;;5006445;28;20643;-66
2022/03/09 07:10:37;;;;;;;45.10;23.85;;;2.30;99.90;;;;;;5007730;28;20033;-66
2022/03/09 07:13:03;;;;;;;34.15;21.42;;;2.50;99.90;;;;;;5005952;28;20042;-67
2022/03/09 07:15:28;;;;;;;37.75;22.98;;;2.60;99.90;;;;;;5008103;28;20038;-67
2022/03/09 07:17:54;;;;;;;37.15;22.45;;;2.70;99.90;;;;;;5004480;28;20042;-67
2022/03/09 07:20:21;;;;;;;37.88;23.88;;;2.90;99.90;;;;;;5005475;28;20056;-67
2022/03/09 07:22:47;;;;;;;39.83;23.85;;;2.90;99.90;;;;;;5012479;28;20092;-67
2022/03/09 07:25:14;;;;;;;37.72;23.65;;;2.90;99.90;;;;;;5008126;28;20046;-67
2022/03/09 07:27:40;;;;;;;49.95;25.25;;;2.80;99.90;;;;;;5011980;28;20875;-67
2022/03/09 07:30:07;;;;;;;38.83;23.50;;;2.90;99.90;;;;;;5007418;28;20065;-67
2022/03/09 07:32:32;;;;;;;39.03;23.25;;;2.80;99.90;;;;;;5008652;28;20057;-68
2022/03/09 07:34:58;;;;;;;41.50;23.85;;;2.80;99.90;;;;;;5014075;28;20106;-67
2022/03/09 07:37:24;;;;;;;35.85;23.25;;;2.90;99.90;;;;;;5004526;28;20834;-66
2022/03/09 07:39:49;;;;;;;36.80;23.58;;;2.90;99.90;;;;;;5010526;28;20564;-67
2022/03/09 07:42:15;;;;;;;32.60;23.73;;;3.00;99.90;;;;;;4993027;28;20900;-67
2022/03/09 07:44:41;;;;;;;41.22;23.40;;;3.00;99.90;;;;;;5010526;28;20112;-67
2022/03/09 07:47:07;;;;;;;38.80;22.60;;;3.10;99.90;;;;;;5009154;28;20102;-67
2022/03/09 07:49:33;;;;;;;36.30;23.70;;;3.10;99.90;;;;;;5008952;28;20046;-67
2022/03/09 07:52:01;;;;;;;32.58;21.90;;;3.10;99.90;;;;;;5012830;28;20061;-67
2022/03/09 07:54:27;;;;;;;37.53;23.00;;;3.20;99.90;;;;;;5009260;28;20046;-67
2022/03/09 07:56:53;;;;;;;35.42;22.98;;;3.20;99.90;;;;;;5017159;28;20308;-66
2022/03/09 07:59:20;;;;;;;37.45;24.20;;;3.40;99.90;;;;;;5008674;28;20081;-67
2022/03/09 08:01:46;;;;;;;38.75;23.15;;;3.40;99.90;;;;;;5007752;28;20104;-67
2022/03/09 08:04:11;;;;;;;48.08;23.92;;;3.40;99.90;;;;;;5011046;28;20458;-67
2022/03/09 08:06:37;;;;;;;40.88;23.98;;;3.50;99.90;;;;;;5011501;28;20046;-67
2022/03/09 08:09:04;;;;;;;39.72;23.05;;;3.70;99.90;;;;;;5005412;28;20042;-67
2022/03/09 08:11:30;;;;;;;35.40;22.70;;;3.80;99.90;;;;;;5007188;28;20049;-67
2022/03/09 08:13:57;;;;;;;30.77;20.58;;;3.90;99.90;;;;;;5008038;28;20042;-67
2022/03/09 08:16:23;;;;;;;34.97;22.40;;;4.00;99.90;;;;;;5007539;28;20438;-67
2022/03/09 08:18:48;;;;;;;35.38;23.58;;;4.20;99.90;;;;;;5007012;28;20045;-67
2022/03/09 08:21:14;;;;;;;40.80;24.02;;;4.30;99.90;;;;;;5007148;28;20045;-67
2022/03/09 08:23:40;;;;;;;38.03;23.48;;;4.30;99.90;;;;;;5005737;28;20048;-67
2022/03/09 08:26:05;;;;;;;36.33;23.13;;;4.30;99.90;;;;;;5000018;28;20046;-67
2022/03/09 08:28:31;;;;;;;35.70;23.70;;;4.30;99.90;;;;;;5005749;28;20506;-67
2022/03/09 08:30:57;;;;;;;39.58;23.50;;;4.40;99.90;;;;;;4988311;28;20534;-67
2022/03/09 08:33:22;;;;;;;32.30;22.08;;;4.30;99.90;;;;;;5006574;28;20053;-68
2022/03/09 08:35:48;;;;;;;42.22;25.60;;;4.30;99.90;;;;;;5007614;28;20804;-67
2022/03/09 08:38:14;;;;;;;43.17;24.13;;;4.30;99.90;;;;;;5008471;28;20105;-67
2022/03/09 08:40:40;;;;;;;37.42;24.73;;;4.30;99.90;;;;;;5007068;28;20042;-67
2022/03/09 08:43:06;;;;;;;40.53;23.23;;;4.40;99.90;;;;;;5008771;28;20547;-67
2022/03/09 08:45:31;;;;;;;40.90;23.80;;;4.40;99.90;;;;;;5006403;28;20089;-67
2022/03/09 08:47:57;;;;;;;37.17;23.55;;;4.50;99.90;;;;;;5009191;28;20046;-67
2022/03/09 08:50:25;;;;;;;38.85;24.60;;;4.60;99.90;;;;;;5006317;28;20958;-68
2022/03/09 08:52:51;;;;;;;36.78;24.35;;;4.70;99.90;;;;;;5004281;28;20049;-67
2022/03/09 08:55:17;;;;;;;44.00;24.98;;;4.70;99.90;;;;;;5004460;28;20049;-67
2022/03/09 08:57:43;;;;;;;41.38;25.02;;;4.80;99.90;;;;;;5006000;28;20127;-67
2022/03/09 09:00:09;;;;;;;31.77;21.25;;;4.90;99.90;;;;;;5010779;28;20128;-67
2022/03/09 09:02:36;;;;;;;49.42;24.95;;;5.00;99.90;;;;;;5004995;28;20042;-67
2022/03/09 09:05:02;;;;;;;43.20;23.08;;;5.30;99.90;;;;;;5007270;28;20054;-67
2022/03/09 09:07:28;;;;;;;35.60;24.00;;;5.50;99.90;;;;;;5007362;28;20045;-67
2022/03/09 09:09:54;;;;;;;38.08;24.77;;;5.70;99.90;;;;;;5005564;28;20041;-67
2022/03/09 09:12:20;;;;;;;29.88;21.13;;;5.90;99.90;;;;;;5007955;28;20052;-67
2022/03/09 09:14:46;;;;;;;43.95;21.42;;;6.00;99.90;;;;;;5010679;28;20050;-66
2022/03/09 09:17:12;;;;;;;31.80;22.48;;;6.20;99.50;;;;;;5001042;28;20048;-67
2022/03/09 09:19:38;;;;;;;34.40;21.88;;;6.40;99.10;;;;;;5003349;28;20766;-68
2022/03/09 09:22:03;;;;;;;39.70;21.25;;;6.60;99.00;;;;;;5009787;28;20121;-68
2022/03/09 09:24:30;;;;;;;37.67;22.05;;;6.80;98.00;;;;;;5004122;28;20399;-67
2022/03/09 09:26:55;;;;;;;34.08;21.60;;;6.90;97.00;;;;;;5011577;28;20617;-70
2022/03/09 09:29:21;;;;;;;38.28;22.73;;;7.20;96.10;;;;;;5005847;28;20050;-68
2022/03/09 09:31:48;;;;;;;35.80;22.35;;;7.30;95.30;;;;;;5011755;28;20033;-67
2022/03/09 09:34:15;;;;;;;36.78;22.48;;;7.50;95.00;;;;;;5009094;28;20069;-68
2022/03/09 09:36:44;;;;;;;35.05;21.10;;;7.70;93.90;;;;;;5010732;28;20499;-68
2022/03/09 09:39:13;;;;;;;39.10;22.55;;;7.80;93.60;;;;;;5012074;28;20067;-67
2022/03/09 09:41:41;;;;;;;;;;;8.00;93.50;;;;;;5007191;28;20080;-68
2022/03/09 09:44:07;;;;;;;40.13;23.02;;;8.20;91.60;;;;;;5007374;28;19921;-69
2022/03/09 09:46:35;;;;;;;33.08;20.30;;;8.40;92.30;;;;;;5009830;28;20050;-68
2022/03/09 09:49:01;;;;;;;38.55;21.23;;;8.60;91.50;;;;;;5010755;28;20054;-68
2022/03/09 09:51:27;;;;;;;39.05;20.10;;;8.80;90.40;;;;;;5008200;28;20491;-68
2022/03/09 09:53:53;;;;;;;36.25;20.02;;;9.00;85.40;;;;;;5008376;28;20054;-68
2022/03/09 09:56:20;;;;;;;34.60;19.38;;;9.20;80.50;;;;;;5004982;28;20058;-68
2022/03/09 09:58:46;;;;;;;36.60;19.33;;;9.40;77.10;;;;;;5008927;28;20175;-68
2022/03/09 10:01:12;;;;;;;33.45;20.33;;;9.60;72.10;;;;;;5009852;28;20512;-69
2022/03/09 10:03:38;;;;;;;36.00;18.73;;;9.60;68.30;;;;;;5006319;28;20034;-68
2022/03/09 10:06:04;;;;;;;39.30;19.65;;;9.80;67.80;;;;;;5004886;28;20049;-68
2022/03/09 10:08:29;;;;;;;32.10;20.13;;;9.90;66.30;;;;;;5011579;28;20053;-68
2022/03/09 10:11:01;;;;;;;30.50;18.10;;;10.00;65.40;;;;;;5006002;28;20380;-68
2022/03/09 10:13:35;;;;;;;35.50;19.92;;;10.10;65.90;;;;;;5007768;28;20045;-67
2022/03/09 10:16:21;;;;;;;29.60;19.13;;;10.20;62.80;;;;;;5005494;28;20065;-68
2022/03/09 10:18:55;;;;;;;33.92;20.58;;;10.30;62.50;;;;;;5003556;28;20045;-67
2022/03/09 10:21:26;;;;;;;33.60;21.17;;;10.40;61.80;;;;;;5004513;28;20042;-67
2022/03/09 10:23:58;;;;;;;29.60;19.10;;;10.50;61.10;;;;;;5004710;28;20419;-67
2022/03/09 10:26:25;;;;;;;33.38;19.13;;;10.60;60.50;;;;;;5005940;28;20070;-68
2022/03/09 10:28:57;;;;;;;36.10;20.20;;;10.70;62.10;;;;;;5005452;28;20444;-67
2022/03/09 10:31:36;;;;;;;32.05;20.45;;;10.80;61.30;;;;;;5001629;28;20495;-67
2022/03/09 10:34:23;;;;;;;33.72;20.48;;;10.90;59.60;;;;;;5005550;28;20053;-68
2022/03/09 10:36:54;;;;;;;34.75;21.63;;;11.00;58.40;;;;;;5008740;28;20037;-67
2022/03/09 10:39:21;;;;;;;34.58;21.67;;;11.10;59.40;;;;;;5002235;28;20080;-68
2022/03/09 10:41:47;;;;;;;31.67;18.48;;;11.20;60.10;;;;;;5010530;28;20034;-67
2022/03/09 10:44:13;;;;;;;37.97;19.73;;;11.30;59.80;;;;;;5006046;28;20046;-67
2022/03/09 10:46:47;;;;;;;34.88;21.25;;;11.30;60.20;;;;;;5012409;28;20045;-67
2022/03/09 10:49:16;;;;;;;30.05;20.17;;;11.20;59.70;;;;;;5007190;28;20046;-67
2022/03/09 10:51:50;;;;;;;37.45;20.35;;;11.20;60.60;;;;;;5008960;28;20034;-67
2022/03/09 10:54:27;;;;;;;30.80;20.50;;;11.30;60.10;;;;;;5009406;28;20044;-67
2022/03/09 10:57:10;;;;;;;33.90;20.75;;;11.40;58.80;;;;;;5008390;28;20058;-68
2022/03/09 10:59:48;;;;;;;36.35;20.50;;;11.40;58.60;;;;;;5013671;28;20033;-67
2022/03/09 11:02:16;;;;;;;37.97;18.52;;;11.40;57.90;;;;;;5005476;28;20490;-66
2022/03/09 11:04:42;;;;;;;44.20;20.15;;;11.50;59.00;;;;;;5006626;28;20048;-67
2022/03/09 11:07:10;;;;;;;30.45;20.25;;;11.50;59.50;;;;;;5005634;28;20038;-67
2022/03/09 11:09:39;;;;;;;;;;;11.60;60.80;;;;;;5009906;28;20088;-67
2022/03/09 11:12:05;;;;;;;28.88;19.55;;;11.70;56.30;;;;;;5008970;28;20337;-66
2022/03/09 11:14:31;;;;;;;27.50;18.40;;;11.70;59.20;;;;;;5007062;28;20042;-67
2022/03/09 11:16:57;;;;;;;35.92;19.25;;;11.80;59.80;;;;;;5007903;28;20038;-67
2022/03/09 11:19:24;;;;;;;41.08;20.92;;;11.90;58.00;;;;;;5004804;28;20042;-67
2022/03/09 11:21:50;;;;;;;32.08;19.63;;;12.10;57.00;;;;;;5010798;28;20392;-66
2022/03/09 11:24:17;;;;;;;34.28;20.77;;;12.10;56.80;;;;;;5007857;28;20073;-67
2022/03/09 11:26:50;;;;;;;30.80;18.83;;;12.10;55.50;;;;;;5003074;28;20046;-66
2022/03/09 11:29:31;;;;;;;30.83;19.88;;;12.20;55.90;;;;;;5007909;28;20352;-66
2022/03/09 11:31:57;;;;;;;33.15;19.00;;;12.20;55.80;;;;;;5002623;28;20034;-66
2022/03/09 11:34:43;;;;;;;39.60;22.17;;;12.20;56.60;;;;;;5005944;28;20050;-66
2022/03/09 11:37:09;;;;;;;557.22;85.22;;;12.30;56.10;;;;;;5007425;28;20046;-66
2022/03/09 11:39:38;;;;;;;33.03;19.27;;;12.40;58.00;;;;;;5012944;28;20046;-67
2022/03/09 11:42:22;;;;;;;31.50;20.48;;;12.30;57.50;;;;;;5000635;28;20105;-68
2022/03/09 11:44:49;;;;;;;34.53;20.52;;;12.40;59.40;;;;;;5004321;28;20495;-68
2022/03/09 11:47:16;;;;;;;32.22;20.23;;;12.50;56.70;;;;;;5009687;28;20050;-68
2022/03/09 11:49:42;;;;;;;26.17;18.75;;;12.50;58.70;;;;;;5007940;28;20037;-69
2022/03/09 11:52:07;;;;;;;28.75;19.30;;;12.50;56.90;;;;;;5006388;28;21081;-69
2022/03/09 11:54:55;;;;;;;29.60;19.02;;;12.50;57.20;;;;;;5009254;28;20049;-69
2022/03/09 11:57:23;;;;;;;30.95;18.73;;;12.60;56.80;;;;;;5010161;28;20522;-69
2022/03/09 12:00:13;;;;;;;33.53;19.25;;;12.50;57.20;;;;;;5010279;28;20079;-70
2022/03/09 12:02:40;;;;;;;25.75;18.88;;;12.50;52.70;;;;;;5006634;28;20577;-69
2022/03/09 12:05:07;;;;;;;33.03;21.70;;;12.60;55.50;;;;;;5007243;28;20491;-70
2022/03/09 12:07:34;;;;;;;31.42;19.25;;;12.60;55.20;;;;;;5005421;28;20161;-70
2022/03/09 12:10:08;;;;;;;26.55;19.38;;;12.60;56.00;;;;;;5006601;28;20105;-70
2022/03/09 12:12:36;;;;;;;26.25;18.85;;;12.70;55.40;;;;;;5008737;28;20034;-70
2022/03/09 12:15:07;;;;;;;35.20;19.02;;;12.60;57.30;;;;;;5007049;28;20492;-70
2022/03/09 12:17:37;;;;;;;33.47;20.77;;;12.70;55.20;;;;;;5009753;28;20099;-71
2022/03/09 12:20:27;;;;;;;37.63;19.73;;;12.70;56.00;;;;;;5004597;28;20159;-70
2022/03/09 12:23:01;;;;;;;30.77;20.75;;;12.80;53.10;;;;;;5013633;28;20823;-70
2022/03/09 12:25:46;;;;;;;30.77;18.10;;;12.90;51.60;;;;;;5010672;28;20096;-70
2022/03/09 12:28:31;;;;;;;30.30;20.00;;;13.00;51.30;;;;;;5005744;28;20045;-71
2022/03/09 12:31:06;;;;;;;29.90;18.88;;;12.90;51.00;;;;;;5008237;28;20116;-71
2022/03/09 12:33:33;;;;;;;31.85;20.42;;;13.00;51.30;;;;;;5002866;28;20084;-70
2022/03/09 12:36:18;;;;;;;27.33;19.00;;;13.10;50.40;;;;;;4990008;28;20133;-70